Greenville, Virginia
Current Conditions -  °F | °C
As of 7:15 PM on Thursday 27 Nov 2014 (Local Time) from KW13 Reporting Station
Broken Clouds Broken Clouds  
Wind Chill: 27°   Ceiling: 5000
Heat Index: 32°   Visibility: 10mi
Dew Point: 22°   Wind: 6mph
Humidity: 66%   Direction: 270°W
Pressure: 30.14"   Gusts: NA
Location:  38°N, 79.16°W
Report Text: KW13 280015Z AUTO 27005KT 10SM BKN050 00/M06 A3014 RMK AO1 T00011056
Loading
Personal Weather Stations






























Interactive Weather Map New forecast layout! Learn more

10-Day Weather Forecast

Advertisements
Track Severe Weather on mobile